sensor_id;sensor_type;location;lat;lon;timestamp;P1;durP1;ratioP1;P2;durP2;ratioP2
10479;SDS011;12789;42.610;23.040;2022-08-19T00:01:51;6.70;;;4.75;;
10479;SDS011;12789;42.610;23.040;2022-08-19T00:04:20;8.70;;;4.90;;
10479;SDS011;12789;42.610;23.040;2022-08-19T00:06:50;6.82;;;4.43;;
10479;SDS011;12789;42.610;23.040;2022-08-19T00:09:19;5.68;;;5.03;;
10479;SDS011;12789;42.610;23.040;2022-08-19T00:11:48;5.57;;;4.38;;
10479;SDS011;12789;42.610;23.040;2022-08-19T00:14:17;7.30;;;4.72;;
10479;SDS011;12789;42.610;23.040;2022-08-19T00:16:46;6.80;;;4.45;;
10479;SDS011;12789;42.610;23.040;2022-08-19T00:19:14;6.00;;;4.80;;
10479;SDS011;12789;42.610;23.040;2022-08-19T00:21:41;5.53;;;4.65;;
10479;SDS011;12789;42.610;23.040;2022-08-19T00:24:09;5.90;;;4.97;;
10479;SDS011;12789;42.610;23.040;2022-08-19T00:26:38;5.43;;;4.88;;
10479;SDS011;12789;42.610;23.040;2022-08-19T00:29:06;8.23;;;5.43;;
10479;SDS011;12789;42.610;23.040;2022-08-19T00:31:38;6.10;;;5.50;;
10479;SDS011;12789;42.610;23.040;2022-08-19T00:34:05;5.82;;;5.20;;
10479;SDS011;12789;42.610;23.040;2022-08-19T00:36:32;6.50;;;5.28;;
10479;SDS011;12789;42.610;23.040;2022-08-19T00:38:59;6.70;;;4.80;;
10479;SDS011;12789;42.610;23.040;2022-08-19T00:41:27;8.95;;;4.43;;
10479;SDS011;12789;42.610;23.040;2022-08-19T00:43:59;5.63;;;5.13;;
10479;SDS011;12789;42.610;23.040;2022-08-19T00:46:28;6.40;;;4.72;;
10479;SDS011;12789;42.610;23.040;2022-08-19T00:48:57;6.85;;;4.82;;
10479;SDS011;12789;42.610;23.040;2022-08-19T00:51:25;5.78;;;4.80;;
10479;SDS011;12789;42.610;23.040;2022-08-19T00:53:54;6.07;;;4.72;;
10479;SDS011;12789;42.610;23.040;2022-08-19T00:56:23;9.00;;;5.07;;
10479;SDS011;12789;42.610;23.040;2022-08-19T00:58:52;6.70;;;4.72;;
10479;SDS011;12789;42.610;23.040;2022-08-19T01:01:21;5.68;;;4.80;;
10479;SDS011;12789;42.610;23.040;2022-08-19T01:03:48;5.47;;;4.78;;
10479;SDS011;12789;42.610;23.040;2022-08-19T01:06:16;5.82;;;4.57;;
10479;SDS011;12789;42.610;23.040;2022-08-19T01:08:44;5.25;;;4.68;;
10479;SDS011;12789;42.610;23.040;2022-08-19T01:11:11;6.97;;;5.13;;
10479;SDS011;12789;42.610;23.040;2022-08-19T01:13:38;5.93;;;4.78;;
10479;SDS011;12789;42.610;23.040;2022-08-19T01:16:08;5.13;;;4.72;;
10479;SDS011;12789;42.610;23.040;2022-08-19T01:18:36;6.80;;;4.85;;
10479;SDS011;12789;42.610;23.040;2022-08-19T01:21:08;6.68;;;5.05;;
10479;SDS011;12789;42.610;23.040;2022-08-19T01:23:41;6.53;;;4.78;;
10479;SDS011;12789;42.610;23.040;2022-08-19T01:26:09;5.20;;;4.80;;
10479;SDS011;12789;42.610;23.040;2022-08-19T01:28:38;8.55;;;5.10;;
10479;SDS011;12789;42.610;23.040;2022-08-19T01:31:06;5.85;;;4.72;;
10479;SDS011;12789;42.610;23.040;2022-08-19T01:33:37;6.70;;;4.93;;
10479;SDS011;12789;42.610;23.040;2022-08-19T01:36:05;6.90;;;5.07;;
10479;SDS011;12789;42.610;23.040;2022-08-19T01:38:35;5.90;;;4.80;;
10479;SDS011;12789;42.610;23.040;2022-08-19T01:41:05;8.55;;;4.75;;
10479;SDS011;12789;42.610;23.040;2022-08-19T01:43:32;7.38;;;5.00;;
10479;SDS011;12789;42.610;23.040;2022-08-19T01:45:59;7.13;;;5.25;;
10479;SDS011;12789;42.610;23.040;2022-08-19T01:48:32;5.70;;;5.20;;
10479;SDS011;12789;42.610;23.040;2022-08-19T01:50:59;11.20;;;5.65;;
10479;SDS011;12789;42.610;23.040;2022-08-19T01:53:26;11.45;;;5.30;;
10479;SDS011;12789;42.610;23.040;2022-08-19T01:55:55;7.05;;;5.30;;
10479;SDS011;12789;42.610;23.040;2022-08-19T01:58:24;5.95;;;5.22;;
10479;SDS011;12789;42.610;23.040;2022-08-19T02:00:59;6.72;;;5.68;;
10479;SDS011;12789;42.610;23.040;2022-08-19T02:03:26;6.47;;;5.82;;
10479;SDS011;12789;42.610;23.040;2022-08-19T02:05:54;6.95;;;4.90;;
10479;SDS011;12789;42.610;23.040;2022-08-19T02:08:23;6.85;;;5.35;;
10479;SDS011;12789;42.610;23.040;2022-08-19T02:10:50;7.85;;;5.60;;
10479;SDS011;12789;42.610;23.040;2022-08-19T02:13:17;5.90;;;5.40;;
10479;SDS011;12789;42.610;23.040;2022-08-19T02:15:49;5.80;;;5.30;;
10479;SDS011;12789;42.610;23.040;2022-08-19T02:18:17;5.97;;;5.20;;
10479;SDS011;12789;42.610;23.040;2022-08-19T02:20:44;6.78;;;5.65;;
10479;SDS011;12789;42.610;23.040;2022-08-19T02:23:13;5.88;;;5.38;;
10479;SDS011;12789;42.610;23.040;2022-08-19T02:25:42;6.03;;;5.43;;
10479;SDS011;12789;42.610;23.040;2022-08-19T02:28:11;6.28;;;5.20;;
10479;SDS011;12789;42.610;23.040;2022-08-19T02:30:40;9.02;;;5.75;;
10479;SDS011;12789;42.610;23.040;2022-08-19T02:33:09;9.45;;;5.53;;
10479;SDS011;12789;42.610;23.040;2022-08-19T02:35:36;7.22;;;5.60;;
10479;SDS011;12789;42.610;23.040;2022-08-19T02:38:04;6.70;;;5.13;;
10479;SDS011;12789;42.610;23.040;2022-08-19T02:40:48;10.48;;;5.65;;
10479;SDS011;12789;42.610;23.040;2022-08-19T02:43:18;10.25;;;5.95;;
10479;SDS011;12789;42.610;23.040;2022-08-19T02:45:46;6.22;;;5.28;;
10479;SDS011;12789;42.610;23.040;2022-08-19T02:48:16;6.13;;;5.20;;
10479;SDS011;12789;42.610;23.040;2022-08-19T02:50:44;9.00;;;5.95;;
10479;SDS011;12789;42.610;23.040;2022-08-19T02:53:12;5.82;;;5.00;;
10479;SDS011;12789;42.610;23.040;2022-08-19T02:55:43;5.90;;;5.30;;
10479;SDS011;12789;42.610;23.040;2022-08-19T02:58:11;9.27;;;5.55;;
10479;SDS011;12789;42.610;23.040;2022-08-19T03:00:42;9.60;;;5.47;;
10479;SDS011;12789;42.610;23.040;2022-08-19T03:03:10;5.80;;;5.20;;
10479;SDS011;12789;42.610;23.040;2022-08-19T03:05:39;5.97;;;5.38;;
10479;SDS011;12789;42.610;23.040;2022-08-19T03:08:06;6.15;;;5.18;;
10479;SDS011;12789;42.610;23.040;2022-08-19T03:10:40;6.50;;;5.57;;
10479;SDS011;12789;42.610;23.040;2022-08-19T03:13:10;10.98;;;5.38;;
10479;SDS011;12789;42.610;23.040;2022-08-19T03:15:39;6.85;;;5.45;;
10479;SDS011;12789;42.610;23.040;2022-08-19T03:18:07;12.68;;;6.35;;
10479;SDS011;12789;42.610;23.040;2022-08-19T03:20:40;7.20;;;6.00;;
10479;SDS011;12789;42.610;23.040;2022-08-19T03:23:08;9.80;;;6.50;;
10479;SDS011;12789;42.610;23.040;2022-08-19T03:25:39;8.10;;;5.80;;
10479;SDS011;12789;42.610;23.040;2022-08-19T03:28:08;8.35;;;5.68;;
10479;SDS011;12789;42.610;23.040;2022-08-19T03:30:36;7.82;;;5.80;;
10479;SDS011;12789;42.610;23.040;2022-08-19T03:33:02;6.25;;;5.65;;
10479;SDS011;12789;42.610;23.040;2022-08-19T03:35:30;6.80;;;6.10;;
10479;SDS011;12789;42.610;23.040;2022-08-19T03:37:59;8.60;;;5.80;;
10479;SDS011;12789;42.610;23.040;2022-08-19T03:40:26;6.60;;;6.00;;
10479;SDS011;12789;42.610;23.040;2022-08-19T03:42:54;12.05;;;6.00;;
10479;SDS011;12789;42.610;23.040;2022-08-19T03:45:22;11.15;;;6.25;;
10479;SDS011;12789;42.610;23.040;2022-08-19T03:47:49;6.85;;;6.25;;
10479;SDS011;12789;42.610;23.040;2022-08-19T03:50:16;6.47;;;5.88;;
10479;SDS011;12789;42.610;23.040;2022-08-19T03:52:47;10.70;;;7.03;;
10479;SDS011;12789;42.610;23.040;2022-08-19T03:55:17;8.75;;;6.97;;
10479;SDS011;12789;42.610;23.040;2022-08-19T03:57:44;9.43;;;6.82;;
10479;SDS011;12789;42.610;23.040;2022-08-19T04:00:13;14.88;;;7.57;;
10479;SDS011;12789;42.610;23.040;2022-08-19T04:02:41;9.07;;;6.53;;
10479;SDS011;12789;42.610;23.040;2022-08-19T04:05:09;14.65;;;6.65;;
10479;SDS011;12789;42.610;23.040;2022-08-19T04:07:36;13.15;;;6.45;;
10479;SDS011;12789;42.610;23.040;2022-08-19T04:10:03;7.03;;;6.35;;
10479;SDS011;12789;42.610;23.040;2022-08-19T04:12:32;7.80;;;6.25;;
10479;SDS011;12789;42.610;23.040;2022-08-19T04:14:59;9.63;;;7.00;;
10479;SDS011;12789;42.610;23.040;2022-08-19T04:17:26;16.67;;;6.40;;
10479;SDS011;12789;42.610;23.040;2022-08-19T04:19:53;8.45;;;6.30;;
10479;SDS011;12789;42.610;23.040;2022-08-19T04:22:21;15.82;;;6.95;;
10479;SDS011;12789;42.610;23.040;2022-08-19T04:24:48;9.13;;;5.85;;
10479;SDS011;12789;42.610;23.040;2022-08-19T04:27:15;11.93;;;6.60;;
10479;SDS011;12789;42.610;23.040;2022-08-19T04:29:45;11.10;;;7.03;;
10479;SDS011;12789;42.610;23.040;2022-08-19T04:32:14;12.52;;;6.20;;
10479;SDS011;12789;42.610;23.040;2022-08-19T04:34:41;8.40;;;6.25;;
10479;SDS011;12789;42.610;23.040;2022-08-19T04:37:09;14.15;;;6.60;;
10479;SDS011;12789;42.610;23.040;2022-08-19T04:39:36;10.95;;;7.05;;
10479;SDS011;12789;42.610;23.040;2022-08-19T04:42:21;14.25;;;6.47;;
10479;SDS011;12789;42.610;23.040;2022-08-19T04:45:09;12.05;;;6.40;;
10479;SDS011;12789;42.610;23.040;2022-08-19T04:47:39;8.02;;;6.70;;
10479;SDS011;12789;42.610;23.040;2022-08-19T04:50:07;13.32;;;6.43;;
10479;SDS011;12789;42.610;23.040;2022-08-19T04:52:37;14.57;;;7.70;;
10479;SDS011;12789;42.610;23.040;2022-08-19T04:55:08;8.73;;;6.90;;
10479;SDS011;12789;42.610;23.040;2022-08-19T04:57:36;11.40;;;7.18;;
10479;SDS011;12789;42.610;23.040;2022-08-19T05:00:04;12.40;;;6.95;;
10479;SDS011;12789;42.610;23.040;2022-08-19T05:02:34;12.20;;;7.30;;
10479;SDS011;12789;42.610;23.040;2022-08-19T05:05:03;17.13;;;7.85;;
10479;SDS011;12789;42.610;23.040;2022-08-19T05:07:31;16.75;;;7.72;;
10479;SDS011;12789;42.610;23.040;2022-08-19T05:09:58;13.32;;;8.00;;
10479;SDS011;12789;42.610;23.040;2022-08-19T05:12:25;17.35;;;9.25;;
10479;SDS011;12789;42.610;23.040;2022-08-19T05:14:53;11.93;;;8.52;;
10479;SDS011;12789;42.610;23.040;2022-08-19T05:17:22;22.10;;;8.00;;
10479;SDS011;12789;42.610;23.040;2022-08-19T05:19:50;19.50;;;7.85;;
10479;SDS011;12789;42.610;23.040;2022-08-19T05:22:31;16.05;;;8.50;;
10479;SDS011;12789;42.610;23.040;2022-08-19T05:25:02;17.70;;;9.05;;
10479;SDS011;12789;42.610;23.040;2022-08-19T05:27:31;23.20;;;8.02;;
10479;SDS011;12789;42.610;23.040;2022-08-19T05:29:58;20.70;;;9.02;;
10479;SDS011;12789;42.610;23.040;2022-08-19T05:32:26;22.48;;;8.10;;
10479;SDS011;12789;42.610;23.040;2022-08-19T05:34:55;16.25;;;7.45;;
10479;SDS011;12789;42.610;23.040;2022-08-19T05:37:22;15.07;;;7.60;;
10479;SDS011;12789;42.610;23.040;2022-08-19T05:39:51;17.10;;;7.47;;
10479;SDS011;12789;42.610;23.040;2022-08-19T05:42:20;19.20;;;7.93;;
10479;SDS011;12789;42.610;23.040;2022-08-19T05:44:48;22.10;;;7.65;;
10479;SDS011;12789;42.610;23.040;2022-08-19T05:47:15;17.00;;;7.32;;
10479;SDS011;12789;42.610;23.040;2022-08-19T05:49:44;19.25;;;7.15;;
10479;SDS011;12789;42.610;23.040;2022-08-19T05:52:13;14.10;;;6.95;;
10479;SDS011;12789;42.610;23.040;2022-08-19T05:54:42;16.75;;;6.95;;
10479;SDS011;12789;42.610;23.040;2022-08-19T05:57:13;19.63;;;7.15;;
10479;SDS011;12789;42.610;23.040;2022-08-19T05:59:40;13.50;;;6.28;;
10479;SDS011;12789;42.610;23.040;2022-08-19T06:02:07;13.48;;;6.57;;
10479;SDS011;12789;42.610;23.040;2022-08-19T06:04:37;13.60;;;5.68;;
10479;SDS011;12789;42.610;23.040;2022-08-19T06:07:04;9.93;;;5.50;;
10479;SDS011;12789;42.610;23.040;2022-08-19T06:09:32;7.82;;;4.95;;
10479;SDS011;12789;42.610;23.040;2022-08-19T06:12:00;7.60;;;5.22;;
10479;SDS011;12789;42.610;23.040;2022-08-19T06:14:32;17.35;;;5.63;;
10479;SDS011;12789;42.610;23.040;2022-08-19T06:17:01;9.73;;;6.43;;
10479;SDS011;12789;42.610;23.040;2022-08-19T06:19:28;8.50;;;5.07;;
10479;SDS011;12789;42.610;23.040;2022-08-19T06:21:56;9.27;;;5.75;;
10479;SDS011;12789;42.610;23.040;2022-08-19T06:24:26;8.70;;;5.85;;
10479;SDS011;12789;42.610;23.040;2022-08-19T06:26:58;8.73;;;5.30;;
10479;SDS011;12789;42.610;23.040;2022-08-19T06:29:26;6.47;;;4.70;;
10479;SDS011;12789;42.610;23.040;2022-08-19T06:31:57;6.70;;;4.53;;
10479;SDS011;12789;42.610;23.040;2022-08-19T06:34:25;7.40;;;5.30;;
10479;SDS011;12789;42.610;23.040;2022-08-19T06:36:54;11.07;;;5.97;;
10479;SDS011;12789;42.610;23.040;2022-08-19T06:39:25;7.57;;;5.40;;
10479;SDS011;12789;42.610;23.040;2022-08-19T06:41:54;9.52;;;5.57;;
10479;SDS011;12789;42.610;23.040;2022-08-19T06:44:26;9.50;;;4.50;;
10479;SDS011;12789;42.610;23.040;2022-08-19T06:46:55;7.85;;;4.57;;
10479;SDS011;12789;42.610;23.040;2022-08-19T06:49:22;6.63;;;4.78;;
10479;SDS011;12789;42.610;23.040;2022-08-19T06:51:56;6.95;;;4.20;;
10479;SDS011;12789;42.610;23.040;2022-08-19T06:54:24;9.13;;;4.55;;
10479;SDS011;12789;42.610;23.040;2022-08-19T06:56:53;9.38;;;4.40;;
10479;SDS011;12789;42.610;23.040;2022-08-19T06:59:21;8.52;;;4.35;;
10479;SDS011;12789;42.610;23.040;2022-08-19T07:01:54;7.07;;;4.30;;
10479;SDS011;12789;42.610;23.040;2022-08-19T07:04:24;7.40;;;4.05;;
10479;SDS011;12789;42.610;23.040;2022-08-19T07:06:56;10.80;;;4.32;;
10479;SDS011;12789;42.610;23.040;2022-08-19T07:09:25;6.72;;;4.80;;
10479;SDS011;12789;42.610;23.040;2022-08-19T07:11:53;6.40;;;4.30;;
10479;SDS011;12789;42.610;23.040;2022-08-19T07:14:22;6.55;;;4.13;;
10479;SDS011;12789;42.610;23.040;2022-08-19T07:16:51;10.57;;;4.40;;
10479;SDS011;12789;42.610;23.040;2022-08-19T07:19:21;9.23;;;4.20;;
10479;SDS011;12789;42.610;23.040;2022-08-19T07:21:51;6.97;;;4.60;;
10479;SDS011;12789;42.610;23.040;2022-08-19T07:24:19;6.00;;;4.13;;
10479;SDS011;12789;42.610;23.040;2022-08-19T07:26:49;7.38;;;4.78;;
10479;SDS011;12789;42.610;23.040;2022-08-19T07:29:17;6.43;;;4.80;;
10479;SDS011;12789;42.610;23.040;2022-08-19T07:31:48;7.38;;;5.18;;
10479;SDS011;12789;42.610;23.040;2022-08-19T07:34:15;16.13;;;4.50;;
10479;SDS011;12789;42.610;23.040;2022-08-19T07:36:44;10.73;;;4.10;;
10479;SDS011;12789;42.610;23.040;2022-08-19T07:39:13;7.75;;;4.47;;
10479;SDS011;12789;42.610;23.040;2022-08-19T07:41:41;9.80;;;4.82;;
10479;SDS011;12789;42.610;23.040;2022-08-19T07:44:09;10.93;;;4.68;;
10479;SDS011;12789;42.610;23.040;2022-08-19T07:46:39;7.90;;;4.70;;
10479;SDS011;12789;42.610;23.040;2022-08-19T07:49:10;8.27;;;4.05;;
10479;SDS011;12789;42.610;23.040;2022-08-19T07:51:44;8.02;;;4.60;;
10479;SDS011;12789;42.610;23.040;2022-08-19T07:54:12;7.75;;;4.40;;
10479;SDS011;12789;42.610;23.040;2022-08-19T07:56:39;5.32;;;4.32;;
10479;SDS011;12789;42.610;23.040;2022-08-19T07:59:05;9.15;;;4.47;;
10479;SDS011;12789;42.610;23.040;2022-08-19T08:01:34;6.20;;;4.20;;
10479;SDS011;12789;42.610;23.040;2022-08-19T08:04:01;11.93;;;4.40;;
10479;SDS011;12789;42.610;23.040;2022-08-19T08:06:47;6.15;;;4.60;;
10479;SDS011;12789;42.610;23.040;2022-08-19T08:09:33;4.30;;;3.83;;
10479;SDS011;12789;42.610;23.040;2022-08-19T08:12:04;7.15;;;4.15;;
10479;SDS011;12789;42.610;23.040;2022-08-19T08:14:36;8.13;;;4.05;;
10479;SDS011;12789;42.610;23.040;2022-08-19T08:17:06;10.55;;;4.20;;
10479;SDS011;12789;42.610;23.040;2022-08-19T08:19:34;4.53;;;3.58;;
10479;SDS011;12789;42.610;23.040;2022-08-19T08:22:03;4.00;;;3.60;;
10479;SDS011;12789;42.610;23.040;2022-08-19T08:24:31;5.82;;;3.58;;
10479;SDS011;12789;42.610;23.040;2022-08-19T08:27:01;5.85;;;3.28;;
10479;SDS011;12789;42.610;23.040;2022-08-19T08:29:29;5.18;;;3.50;;
10479;SDS011;12789;42.610;23.040;2022-08-19T08:31:57;4.75;;;3.00;;
10479;SDS011;12789;42.610;23.040;2022-08-19T08:34:24;4.43;;;2.70;;
10479;SDS011;12789;42.610;23.040;2022-08-19T08:36:51;4.90;;;2.55;;
10479;SDS011;12789;42.610;23.040;2022-08-19T08:39:20;4.25;;;3.05;;
10479;SDS011;12789;42.610;23.040;2022-08-19T08:41:50;3.53;;;2.85;;
10479;SDS011;12789;42.610;23.040;2022-08-19T08:44:20;3.85;;;2.70;;
10479;SDS011;12789;42.610;23.040;2022-08-19T08:46:50;4.57;;;2.47;;
10479;SDS011;12789;42.610;23.040;2022-08-19T08:49:25;4.32;;;2.30;;
10479;SDS011;12789;42.610;23.040;2022-08-19T08:51:59;3.17;;;2.80;;
10479;SDS011;12789;42.610;23.040;2022-08-19T08:54:32;2.50;;;2.30;;
10479;SDS011;12789;42.610;23.040;2022-08-19T08:57:02;2.70;;;2.50;;
10479;SDS011;12789;42.610;23.040;2022-08-19T08:59:34;4.05;;;2.72;;
10479;SDS011;12789;42.610;23.040;2022-08-19T09:02:05;4.53;;;2.80;;
10479;SDS011;12789;42.610;23.040;2022-08-19T09:04:34;3.17;;;2.50;;
10479;SDS011;12789;42.610;23.040;2022-08-19T09:07:08;3.85;;;2.80;;
10479;SDS011;12789;42.610;23.040;2022-08-19T09:09:46;3.45;;;2.22;;
10479;SDS011;12789;42.610;23.040;2022-08-19T09:12:16;2.65;;;2.50;;
10479;SDS011;12789;42.610;23.040;2022-08-19T09:14:50;2.67;;;2.50;;
10479;SDS011;12789;42.610;23.040;2022-08-19T09:17:22;3.30;;;2.35;;
10479;SDS011;12789;42.610;23.040;2022-08-19T09:19:53;5.13;;;2.72;;
10479;SDS011;12789;42.610;23.040;2022-08-19T09:22:23;4.05;;;2.60;;
10479;SDS011;12789;42.610;23.040;2022-08-19T09:24:53;2.67;;;2.22;;
10479;SDS011;12789;42.610;23.040;2022-08-19T09:27:22;6.53;;;2.92;;
10479;SDS011;12789;42.610;23.040;2022-08-19T09:29:51;3.78;;;2.13;;
10479;SDS011;12789;42.610;23.040;2022-08-19T09:32:19;4.50;;;1.98;;
10479;SDS011;12789;42.610;23.040;2022-08-19T09:34:48;2.60;;;2.40;;
10479;SDS011;12789;42.610;23.040;2022-08-19T09:37:22;4.45;;;2.30;;
10479;SDS011;12789;42.610;23.040;2022-08-19T09:39:49;2.50;;;2.30;;
10479;SDS011;12789;42.610;23.040;2022-08-19T09:42:25;3.65;;;2.40;;
10479;SDS011;12789;42.610;23.040;2022-08-19T09:44:59;2.65;;;2.20;;
10479;SDS011;12789;42.610;23.040;2022-08-19T09:47:26;7.05;;;2.70;;
10479;SDS011;12789;42.610;23.040;2022-08-19T09:49:53;2.40;;;2.20;;
10479;SDS011;12789;42.610;23.040;2022-08-19T09:52:20;3.58;;;2.33;;
10479;SDS011;12789;42.610;23.040;2022-08-19T09:54:47;3.72;;;2.47;;
10479;SDS011;12789;42.610;23.040;2022-08-19T09:57:18;3.95;;;2.25;;
10479;SDS011;12789;42.610;23.040;2022-08-19T09:59:46;2.50;;;2.30;;
10479;SDS011;12789;42.610;23.040;2022-08-19T10:02:13;2.33;;;2.22;;
10479;SDS011;12789;42.610;23.040;2022-08-19T10:04:40;2.75;;;2.13;;
10479;SDS011;12789;42.610;23.040;2022-08-19T10:07:25;3.60;;;2.22;;
10479;SDS011;12789;42.610;23.040;2022-08-19T10:09:52;2.38;;;2.20;;
10479;SDS011;12789;42.610;23.040;2022-08-19T10:12:20;2.60;;;2.17;;
10479;SDS011;12789;42.610;23.040;2022-08-19T10:14:49;2.45;;;2.25;;
10479;SDS011;12789;42.610;23.040;2022-08-19T10:17:17;2.80;;;2.25;;
10479;SDS011;12789;42.610;23.040;2022-08-19T10:19:44;5.75;;;2.20;;
10479;SDS011;12789;42.610;23.040;2022-08-19T10:22:13;3.88;;;2.20;;
10479;SDS011;12789;42.610;23.040;2022-08-19T10:24:41;2.85;;;2.22;;
10479;SDS011;12789;42.610;23.040;2022-08-19T10:27:08;2.40;;;2.17;;
10479;SDS011;12789;42.610;23.040;2022-08-19T10:29:35;3.42;;;2.20;;
10479;SDS011;12789;42.610;23.040;2022-08-19T10:32:05;3.63;;;2.20;;
10479;SDS011;12789;42.610;23.040;2022-08-19T10:34:35;3.35;;;2.05;;
10479;SDS011;12789;42.610;23.040;2022-08-19T10:37:04;3.65;;;2.20;;
10479;SDS011;12789;42.610;23.040;2022-08-19T10:39:32;4.47;;;2.35;;
10479;SDS011;12789;42.610;23.040;2022-08-19T10:42:03;2.38;;;2.17;;
10479;SDS011;12789;42.610;23.040;2022-08-19T10:44:31;4.68;;;2.53;;
10479;SDS011;12789;42.610;23.040;2022-08-19T10:47:01;3.15;;;2.33;;
10479;SDS011;12789;42.610;23.040;2022-08-19T10:49:30;4.82;;;2.17;;
10479;SDS011;12789;42.610;23.040;2022-08-19T10:52:17;2.58;;;2.20;;
10479;SDS011;12789;42.610;23.040;2022-08-19T10:54:58;4.82;;;2.28;;
10479;SDS011;12789;42.610;23.040;2022-08-19T10:57:44;3.72;;;2.10;;
10479;SDS011;12789;42.610;23.040;2022-08-19T11:00:12;4.03;;;2.30;;
10479;SDS011;12789;42.610;23.040;2022-08-19T11:02:39;4.05;;;2.10;;
10479;SDS011;12789;42.610;23.040;2022-08-19T11:05:09;6.85;;;2.20;;
10479;SDS011;12789;42.610;23.040;2022-08-19T11:07:37;3.13;;;2.10;;
10479;SDS011;12789;42.610;23.040;2022-08-19T11:10:05;6.63;;;2.13;;
10479;SDS011;12789;42.610;23.040;2022-08-19T11:12:32;3.75;;;2.03;;
10479;SDS011;12789;42.610;23.040;2022-08-19T11:15:00;5.43;;;2.08;;
10479;SDS011;12789;42.610;23.040;2022-08-19T11:17:27;5.28;;;2.30;;
10479;SDS011;12789;42.610;23.040;2022-08-19T11:19:56;2.65;;;2.40;;
10479;SDS011;12789;42.610;23.040;2022-08-19T11:22:26;3.30;;;2.40;;
10479;SDS011;12789;42.610;23.040;2022-08-19T11:24:53;7.65;;;2.65;;
10479;SDS011;12789;42.610;23.040;2022-08-19T11:27:20;2.30;;;2.10;;
10479;SDS011;12789;42.610;23.040;2022-08-19T11:29:47;5.43;;;2.30;;
10479;SDS011;12789;42.610;23.040;2022-08-19T11:32:15;2.20;;;2.10;;
10479;SDS011;12789;42.610;23.040;2022-08-19T11:34:43;7.95;;;2.78;;
10479;SDS011;12789;42.610;23.040;2022-08-19T11:37:09;5.43;;;2.38;;
10479;SDS011;12789;42.610;23.040;2022-08-19T11:39:38;5.13;;;2.42;;
10479;SDS011;12789;42.610;23.040;2022-08-19T11:42:05;6.90;;;2.65;;
10479;SDS011;12789;42.610;23.040;2022-08-19T11:44:53;5.30;;;2.22;;
10479;SDS011;12789;42.610;23.040;2022-08-19T11:47:20;4.28;;;2.45;;
10479;SDS011;12789;42.610;23.040;2022-08-19T11:49:48;4.80;;;2.42;;
10479;SDS011;12789;42.610;23.040;2022-08-19T11:52:15;8.48;;;2.60;;
10479;SDS011;12789;42.610;23.040;2022-08-19T11:54:44;3.45;;;2.33;;
10479;SDS011;12789;42.610;23.040;2022-08-19T11:57:11;6.25;;;2.67;;
10479;SDS011;12789;42.610;23.040;2022-08-19T11:59:41;6.60;;;2.35;;
10479;SDS011;12789;42.610;23.040;2022-08-19T12:02:09;6.55;;;2.30;;
10479;SDS011;12789;42.610;23.040;2022-08-19T12:04:35;6.35;;;2.80;;
10479;SDS011;12789;42.610;23.040;2022-08-19T12:07:06;7.38;;;2.30;;
10479;SDS011;12789;42.610;23.040;2022-08-19T12:09:33;6.68;;;2.38;;
10479;SDS011;12789;42.610;23.040;2022-08-19T12:12:02;7.90;;;2.30;;
10479;SDS011;12789;42.610;23.040;2022-08-19T12:14:29;3.38;;;2.25;;
10479;SDS011;12789;42.610;23.040;2022-08-19T12:16:57;2.58;;;1.98;;
10479;SDS011;12789;42.610;23.040;2022-08-19T12:19:25;4.88;;;2.40;;
10479;SDS011;12789;42.610;23.040;2022-08-19T12:21:51;3.40;;;2.50;;
10479;SDS011;12789;42.610;23.040;2022-08-19T12:24:22;10.77;;;2.60;;
10479;SDS011;12789;42.610;23.040;2022-08-19T12:26:49;7.15;;;2.33;;
10479;SDS011;12789;42.610;23.040;2022-08-19T12:29:18;5.60;;;2.67;;
10479;SDS011;12789;42.610;23.040;2022-08-19T12:31:45;2.72;;;2.40;;
10479;SDS011;12789;42.610;23.040;2022-08-19T12:34:12;5.72;;;2.50;;
10479;SDS011;12789;42.610;23.040;2022-08-19T12:36:39;6.65;;;2.22;;
10479;SDS011;12789;42.610;23.040;2022-08-19T12:39:07;3.88;;;2.53;;
10479;SDS011;12789;42.610;23.040;2022-08-19T12:41:34;5.78;;;2.95;;
10479;SDS011;12789;42.610;23.040;2022-08-19T12:44:01;4.85;;;2.60;;
10479;SDS011;12789;42.610;23.040;2022-08-19T12:46:30;4.80;;;2.30;;
10479;SDS011;12789;42.610;23.040;2022-08-19T12:48:57;3.50;;;2.50;;
10479;SDS011;12789;42.610;23.040;2022-08-19T12:51:28;3.00;;;2.08;;
10479;SDS011;12789;42.610;23.040;2022-08-19T12:53:57;3.83;;;2.75;;
10479;SDS011;12789;42.610;23.040;2022-08-19T12:56:24;6.47;;;2.25;;
10479;SDS011;12789;42.610;23.040;2022-08-19T12:58:51;3.28;;;2.50;;
10479;SDS011;12789;42.610;23.040;2022-08-19T13:01:18;5.30;;;2.35;;
10479;SDS011;12789;42.610;23.040;2022-08-19T13:03:47;3.20;;;2.40;;
10479;SDS011;12789;42.610;23.040;2022-08-19T13:06:13;5.68;;;2.33;;
10479;SDS011;12789;42.610;23.040;2022-08-19T13:08:43;3.00;;;2.40;;
10479;SDS011;12789;42.610;23.040;2022-08-19T13:11:10;4.53;;;2.40;;
10479;SDS011;12789;42.610;23.040;2022-08-19T13:13:38;4.30;;;2.80;;
10479;SDS011;12789;42.610;23.040;2022-08-19T13:16:06;5.05;;;2.30;;
10479;SDS011;12789;42.610;23.040;2022-08-19T13:18:33;3.75;;;2.25;;
10479;SDS011;12789;42.610;23.040;2022-08-19T13:21:03;3.25;;;2.65;;
10479;SDS011;12789;42.610;23.040;2022-08-19T13:23:31;8.52;;;2.53;;
10479;SDS011;12789;42.610;23.040;2022-08-19T13:26:06;4.40;;;2.60;;
10479;SDS011;12789;42.610;23.040;2022-08-19T13:28:42;3.63;;;2.55;;
10479;SDS011;12789;42.610;23.040;2022-08-19T13:31:27;7.82;;;2.50;;
10479;SDS011;12789;42.610;23.040;2022-08-19T13:34:16;2.60;;;2.33;;
10479;SDS011;12789;42.610;23.040;2022-08-19T13:36:46;6.28;;;2.45;;
10479;SDS011;12789;42.610;23.040;2022-08-19T13:39:13;3.03;;;2.45;;
10479;SDS011;12789;42.610;23.040;2022-08-19T13:41:43;3.85;;;2.40;;
10479;SDS011;12789;42.610;23.040;2022-08-19T13:44:13;6.13;;;2.10;;
10479;SDS011;12789;42.610;23.040;2022-08-19T13:46:40;6.45;;;2.13;;
10479;SDS011;12789;42.610;23.040;2022-08-19T13:49:10;7.57;;;2.40;;
10479;SDS011;12789;42.610;23.040;2022-08-19T13:51:38;5.35;;;2.70;;
10479;SDS011;12789;42.610;23.040;2022-08-19T13:54:10;10.77;;;3.13;;
10479;SDS011;12789;42.610;23.040;2022-08-19T13:56:40;4.93;;;2.58;;
10479;SDS011;12789;42.610;23.040;2022-08-19T13:59:07;5.10;;;2.80;;
10479;SDS011;12789;42.610;23.040;2022-08-19T14:01:35;5.15;;;2.40;;
10479;SDS011;12789;42.610;23.040;2022-08-19T14:04:02;8.77;;;2.80;;
10479;SDS011;12789;42.610;23.040;2022-08-19T14:06:30;4.65;;;2.47;;
10479;SDS011;12789;42.610;23.040;2022-08-19T14:08:57;5.85;;;2.70;;
10479;SDS011;12789;42.610;23.040;2022-08-19T14:11:27;9.45;;;2.28;;
10479;SDS011;12789;42.610;23.040;2022-08-19T14:13:54;9.30;;;2.53;;
10479;SDS011;12789;42.610;23.040;2022-08-19T14:16:21;5.22;;;2.70;;
10479;SDS011;12789;42.610;23.040;2022-08-19T14:18:57;8.07;;;2.35;;
10479;SDS011;12789;42.610;23.040;2022-08-19T14:21:24;3.95;;;2.60;;
10479;SDS011;12789;42.610;23.040;2022-08-19T14:23:53;3.17;;;2.15;;
10479;SDS011;12789;42.610;23.040;2022-08-19T14:26:22;3.60;;;2.30;;
10479;SDS011;12789;42.610;23.040;2022-08-19T14:28:51;4.57;;;2.55;;
10479;SDS011;12789;42.610;23.040;2022-08-19T14:31:23;2.78;;;2.30;;
10479;SDS011;12789;42.610;23.040;2022-08-19T14:33:51;4.85;;;2.42;;
10479;SDS011;12789;42.610;23.040;2022-08-19T14:36:20;6.05;;;2.45;;
10479;SDS011;12789;42.610;23.040;2022-08-19T14:38:47;6.90;;;2.20;;
10479;SDS011;12789;42.610;23.040;2022-08-19T14:41:16;9.82;;;2.75;;
10479;SDS011;12789;42.610;23.040;2022-08-19T14:43:44;4.50;;;2.65;;
10479;SDS011;12789;42.610;23.040;2022-08-19T14:46:14;4.05;;;2.10;;